Time;durP1;ratioP1;P1;durP2;ratioP2;P2;SDS_P1;SDS_P2;PMS_P1;PMS_P2;Temp;Humidity;BMP_temperature;BMP_pressure;BME280_temperature;BME280_humidity;BME280_pressure;Samples;Min_cycle;Max_cycle;Signal;HPM_P1;HPM_P2
2023/09/10 00:00:14;;;;;;;1.50;0.90;;;21.50;98.20;;;;;;4944173;29;20476;-79
2023/09/10 00:02:41;;;;;;;1.47;0.90;;;21.50;98.20;;;;;;4948118;28;20826;-81
2023/09/10 00:05:08;;;;;;;1.60;1.30;;;21.40;98.20;;;;;;4956001;29;20518;-80
2023/09/10 00:07:35;;;;;;;1.50;1.00;;;21.40;98.20;;;;;;4940486;28;20490;-78
2023/09/10 00:10:04;;;;;;;1.50;0.90;;;21.40;98.20;;;;;;4948155;29;20488;-79
2023/09/10 00:12:31;;;;;;;1.47;0.90;;;21.40;98.20;;;;;;4939608;28;20881;-78
2023/09/10 00:14:58;;;;;;;1.47;1.00;;;21.30;98.20;;;;;;4956569;29;20463;-81
2023/09/10 00:17:24;;;;;;;1.47;0.90;;;21.30;98.20;;;;;;4944674;28;20489;-79
2023/09/10 00:19:53;;;;;;;1.47;0.90;;;21.30;98.20;;;;;;4957898;29;20483;-79
2023/09/10 00:22:20;;;;;;;1.50;0.90;;;21.30;98.20;;;;;;4948577;28;20558;-79
2023/09/10 00:24:46;;;;;;;1.50;0.90;;;21.30;98.20;;;;;;4952465;29;20467;-82
2023/09/10 00:27:15;;;;;;;1.50;0.90;;;21.20;98.20;;;;;;4942892;28;20487;-80
2023/09/10 00:29:41;;;;;;;1.50;1.00;;;21.20;98.20;;;;;;4948206;29;20488;-81
2023/09/10 00:32:08;;;;;;;1.47;0.90;;;21.20;98.20;;;;;;4941920;28;20500;-80
2023/09/10 00:34:35;;;;;;;1.50;1.03;;;21.20;98.20;;;;;;4950721;29;20474;-79
2023/09/10 00:37:02;;;;;;;1.43;0.90;;;21.10;98.20;;;;;;4942110;28;20491;-79
2023/09/10 00:39:29;;;;;;;1.47;0.90;;;21.10;98.20;;;;;;4956895;29;20525;-81
2023/09/10 00:41:55;;;;;;;1.47;0.90;;;21.10;98.20;;;;;;4943485;28;20482;-80
2023/09/10 00:44:23;;;;;;;1.47;0.90;;;21.10;98.20;;;;;;4944135;29;20460;-79
2023/09/10 00:46:51;;;;;;;1.47;0.90;;;21.00;98.20;;;;;;4937543;29;21002;-80
2023/09/10 00:49:18;;;;;;;1.50;0.90;;;21.00;98.20;;;;;;4953135;29;20478;-80
2023/09/10 00:51:47;;;;;;;1.47;0.90;;;21.00;98.20;;;;;;4941075;28;20574;-79
2023/09/10 00:54:15;;;;;;;1.50;0.90;;;21.00;98.20;;;;;;4944288;29;20543;-80
2023/09/10 00:56:42;;;;;;;1.50;0.90;;;20.90;98.20;;;;;;4941679;28;20658;-80
2023/09/10 00:59:09;;;;;;;1.47;0.90;;;20.90;98.20;;;;;;4951272;29;20619;-80
2023/09/10 01:01:38;;;;;;;1.47;0.90;;;20.90;98.20;;;;;;4944749;28;20913;-80
2023/09/10 01:04:05;;;;;;;1.50;0.90;;;20.90;98.20;;;;;;4947291;29;20626;-80
2023/09/10 01:06:31;;;;;;;1.50;0.90;;;20.90;98.20;;;;;;4940899;29;20479;-81
2023/09/10 01:08:59;;;;;;;1.50;1.00;;;21.00;98.20;;;;;;4941673;29;20483;-78
2023/09/10 01:11:36;;;;;;;1.50;0.90;;;20.90;98.20;;;;;;4946121;28;20477;-80
2023/09/10 01:14:11;;;;;;;1.50;1.00;;;20.90;98.20;;;;;;4957979;29;20515;-82
2023/09/10 01:16:48;;;;;;;1.47;0.90;;;20.90;98.20;;;;;;4937119;29;21190;-82
2023/09/10 01:19:44;;;;;;;1.50;0.90;;;20.90;98.20;;;;;;4954890;29;20987;-82
2023/09/10 01:22:19;;;;;;;1.50;0.90;;;20.80;98.20;;;;;;4939296;29;20490;-80
2023/09/10 01:24:50;;;;;;;1.50;0.90;;;20.80;98.20;;;;;;4950978;29;20466;-79
2023/09/10 01:27:17;;;;;;;1.50;0.90;;;20.80;98.20;;;;;;4942637;28;20491;-80
2023/09/10 01:29:44;;;;;;;3.40;3.20;;;20.70;98.20;;;;;;4952096;29;20970;-80
2023/09/10 01:32:17;;;;;;;1.50;1.00;;;20.70;98.20;;;;;;4939807;28;20491;-79
2023/09/10 01:34:49;;;;;;;1.47;0.90;;;20.70;98.20;;;;;;4953860;29;20469;-80
2023/09/10 01:37:19;;;;;;;1.47;0.90;;;20.60;98.20;;;;;;4947556;28;20526;-79
2023/09/10 01:39:52;;;;;;;1.50;0.90;;;20.60;98.20;;;;;;4958193;29;20490;-82
2023/09/10 01:42:20;;;;;;;1.40;0.90;;;20.70;98.20;;;;;;4941586;28;20472;-80
2023/09/10 01:44:47;;;;;;;1.43;0.90;;;20.70;98.20;;;;;;4956177;29;20463;-79
2023/09/10 01:47:14;;;;;;;1.43;0.90;;;20.70;98.20;;;;;;4927586;29;20487;-80
2023/09/10 01:49:41;;;;;;;1.50;1.00;;;20.70;98.20;;;;;;4943042;29;20478;-81
2023/09/10 01:52:08;;;;;;;1.50;0.90;;;20.70;98.20;;;;;;4943298;28;20490;-81
2023/09/10 01:54:34;;;;;;;1.47;0.90;;;20.60;98.20;;;;;;4949494;29;20466;-79
2023/09/10 01:57:03;;;;;;;1.50;1.00;;;20.60;98.20;;;;;;4929968;29;21020;-80
2023/09/10 01:59:29;;;;;;;1.50;0.90;;;20.60;98.20;;;;;;4950183;29;20479;-81
2023/09/10 02:01:56;;;;;;;1.50;0.90;;;20.60;98.20;;;;;;4943622;28;20482;-79
2023/09/10 02:04:23;;;;;;;1.47;1.00;;;20.60;98.20;;;;;;4952433;29;20455;-79
2023/09/10 02:06:50;;;;;;;1.47;0.90;;;20.60;98.20;;;;;;4941576;29;20483;-83
2023/09/10 02:09:16;;;;;;;1.47;0.90;;;20.60;98.20;;;;;;4954047;29;20497;-81
2023/09/10 02:11:43;;;;;;;1.43;0.90;;;20.50;98.20;;;;;;4942895;29;20491;-79
2023/09/10 02:14:11;;;;;;;1.47;0.90;;;20.50;98.20;;;;;;4945613;29;20470;-80
2023/09/10 02:16:38;;;;;;;1.47;0.90;;;20.50;98.20;;;;;;4944311;29;20482;-80
2023/09/10 02:19:06;;;;;;;1.50;1.00;;;20.50;98.20;;;;;;4954118;29;20478;-80
2023/09/10 02:21:33;;;;;;;1.47;0.90;;;20.50;98.20;;;;;;4945075;28;20539;-81
2023/09/10 02:24:01;;;;;;;1.50;0.90;;;20.40;98.20;;;;;;4955639;28;20999;-79
2023/09/10 02:26:27;;;;;;;1.50;0.93;;;20.40;98.20;;;;;;4948250;28;20482;-82
2023/09/10 02:28:54;;;;;;;1.43;0.90;;;20.40;98.20;;;;;;4957828;28;20479;-81
2023/09/10 02:31:22;;;;;;;1.50;1.00;;;20.40;98.20;;;;;;4946868;28;20493;-80
2023/09/10 02:33:49;;;;;;;1.47;0.90;;;20.40;98.20;;;;;;4952334;28;20467;-78
2023/09/10 02:36:16;;;;;;;1.50;1.00;;;20.40;98.20;;;;;;4949124;28;20471;-79
2023/09/10 02:38:43;;;;;;;1.50;0.90;;;20.40;98.20;;;;;;4956722;29;20958;-82
2023/09/10 02:41:10;;;;;;;1.50;1.00;;;20.40;98.20;;;;;;4947640;28;20510;-80
2023/09/10 02:43:36;;;;;;;1.50;0.90;;;20.30;98.20;;;;;;4962799;29;20532;-81
2023/09/10 02:46:03;;;;;;;1.43;0.90;;;20.30;98.20;;;;;;4954645;28;20490;-80
2023/09/10 02:48:31;;;;;;;1.50;0.90;;;20.30;98.20;;;;;;4953013;29;20458;-80
2023/09/10 02:50:58;;;;;;;1.50;0.90;;;20.20;98.20;;;;;;4953652;29;20480;-80
2023/09/10 02:53:25;;;;;;;1.50;0.90;;;20.20;98.20;;;;;;4962254;29;20456;-82
2023/09/10 02:55:59;;;;;;;1.43;0.90;;;20.20;98.20;;;;;;4949625;29;21089;-82
2023/09/10 02:58:26;;;;;;;1.50;0.90;;;20.20;98.20;;;;;;4962545;28;21381;-80
2023/09/10 03:00:53;;;;;;;1.50;0.90;;;20.20;98.20;;;;;;4952461;28;20461;-81
2023/09/10 03:03:20;;;;;;;1.50;1.00;;;20.20;98.20;;;;;;4961063;29;20465;-82
2023/09/10 03:05:48;;;;;;;1.50;0.90;;;20.10;98.20;;;;;;4962552;28;21238;-82
2023/09/10 03:08:14;;;;;;;1.50;1.00;;;20.10;98.20;;;;;;4951819;29;20464;-81
2023/09/10 03:10:41;;;;;;;1.77;1.63;;;20.10;98.20;;;;;;4959667;29;20479;-80
2023/09/10 03:13:08;;;;;;;1.50;1.00;;;20.10;98.20;;;;;;4947430;28;20503;-80
2023/09/10 03:15:35;;;;;;;1.50;0.90;;;20.10;98.20;;;;;;4958748;29;20477;-81
2023/09/10 03:18:01;;;;;;;1.50;1.00;;;20.10;98.20;;;;;;4948498;29;20486;-82
2023/09/10 03:20:28;;;;;;;1.47;0.90;;;20.00;98.20;;;;;;4962348;29;20483;-81
2023/09/10 03:22:59;;;;;;;1.50;0.90;;;20.00;98.20;;;;;;4940373;29;20548;-79
2023/09/10 03:25:26;;;;;;;1.50;1.00;;;20.00;98.20;;;;;;4960507;29;20467;-80
2023/09/10 03:27:52;;;;;;;1.50;0.90;;;20.00;98.20;;;;;;4941468;28;20491;-79
2023/09/10 03:30:19;;;;;;;1.50;0.90;;;20.00;98.20;;;;;;4952612;29;20487;-81
2023/09/10 03:32:50;;;;;;;1.70;1.37;;;20.00;98.20;;;;;;4949456;28;20479;-82
2023/09/10 03:35:16;;;;;;;1.50;0.90;;;20.00;98.20;;;;;;4959890;29;20466;-79
2023/09/10 03:37:43;;;;;;;1.50;1.00;;;20.00;98.20;;;;;;4951167;28;21878;-82
2023/09/10 03:40:12;;;;;;;1.47;0.90;;;19.90;98.20;;;;;;4961286;29;20974;-82
2023/09/10 03:42:39;;;;;;;1.50;0.90;;;19.90;98.20;;;;;;4950029;28;20477;-81
2023/09/10 03:45:07;;;;;;;1.43;0.90;;;19.90;98.20;;;;;;4960403;29;20469;-80
2023/09/10 03:47:34;;;;;;;1.47;0.90;;;19.90;98.20;;;;;;4945099;28;20487;-81
2023/09/10 03:50:01;;;;;;;1.97;1.73;;;19.90;98.20;;;;;;4957859;29;20484;-79
2023/09/10 03:52:27;;;;;;;1.50;0.90;;;19.90;98.20;;;;;;4952133;28;20481;-80
2023/09/10 03:54:54;;;;;;;1.60;1.30;;;19.90;98.20;;;;;;4954292;29;20464;-81
2023/09/10 03:57:22;;;;;;;1.50;1.00;;;19.90;98.20;;;;;;4948781;28;20492;-80
2023/09/10 03:59:49;;;;;;;1.50;1.10;;;19.90;98.20;;;;;;4954991;29;20630;-79
2023/09/10 04:02:18;;;;;;;1.50;1.00;;;19.90;98.20;;;;;;4945992;28;20547;-80
2023/09/10 04:04:46;;;;;;;1.50;1.00;;;19.90;98.20;;;;;;4958214;29;20459;-79
2023/09/10 04:07:13;;;;;;;1.50;0.90;;;19.90;98.20;;;;;;4949674;29;20527;-80
2023/09/10 04:09:41;;;;;;;1.50;1.00;;;19.90;98.20;;;;;;4958294;29;20482;-80
2023/09/10 04:12:08;;;;;;;1.50;1.10;;;19.90;98.20;;;;;;4949821;28;20521;-79
2023/09/10 04:14:36;;;;;;;1.47;0.90;;;19.80;98.20;;;;;;4959170;29;20459;-83
2023/09/10 04:17:03;;;;;;;1.50;1.00;;;19.80;98.20;;;;;;4947868;29;20577;-80
2023/09/10 04:19:30;;;;;;;1.50;0.90;;;19.80;98.20;;;;;;4955439;29;20483;-80
2023/09/10 04:21:57;;;;;;;1.47;0.90;;;19.80;98.20;;;;;;4946080;29;20498;-80
2023/09/10 04:24:24;;;;;;;1.43;0.90;;;19.80;98.20;;;;;;4954157;29;20975;-80
2023/09/10 04:26:50;;;;;;;1.50;1.10;;;19.80;98.20;;;;;;4946651;28;20518;-81
2023/09/10 04:29:17;;;;;;;1.50;1.00;;;19.80;98.20;;;;;;4956012;29;20486;-82
2023/09/10 04:31:45;;;;;;;1.47;0.90;;;19.80;98.20;;;;;;4949476;28;20482;-81
2023/09/10 04:34:12;;;;;;;1.50;1.00;;;19.80;98.20;;;;;;4957383;29;20878;-78
2023/09/10 04:36:39;;;;;;;1.43;0.90;;;19.80;98.20;;;;;;4945076;29;20487;-79
2023/09/10 04:39:08;;;;;;;1.47;0.90;;;19.80;98.20;;;;;;4956076;29;20486;-80
2023/09/10 04:41:35;;;;;;;1.50;0.90;;;19.80;98.20;;;;;;4947509;28;20487;-81
2023/09/10 04:44:02;;;;;;;1.43;0.90;;;19.80;98.20;;;;;;4957486;29;20473;-79
2023/09/10 04:46:29;;;;;;;3.10;1.70;;;19.80;98.20;;;;;;4943235;29;20478;-80
2023/09/10 04:48:57;;;;;;;1.50;0.90;;;19.70;98.20;;;;;;4947355;29;20498;-80
2023/09/10 04:51:24;;;;;;;1.50;0.90;;;19.70;98.20;;;;;;4931716;28;20829;-78
2023/09/10 04:53:51;;;;;;;1.50;1.00;;;19.60;98.20;;;;;;4951721;29;20462;-79
2023/09/10 04:56:17;;;;;;;1.50;0.90;;;19.60;98.20;;;;;;4936861;28;20491;-80
2023/09/10 04:58:44;;;;;;;1.50;0.90;;;19.70;98.20;;;;;;4940324;28;20460;-79
2023/09/10 05:01:11;;;;;;;2.03;1.60;;;19.70;98.20;;;;;;4942488;28;20565;-79
2023/09/10 05:03:38;;;;;;;1.50;0.90;;;19.70;98.20;;;;;;4944702;29;21022;-79
2023/09/10 05:06:07;;;;;;;1.47;0.93;;;19.70;98.20;;;;;;4940842;29;20490;-80
2023/09/10 05:08:34;;;;;;;1.50;0.90;;;19.70;98.20;;;;;;4944571;29;20523;-81
2023/09/10 05:11:02;;;;;;;1.50;0.90;;;19.60;98.20;;;;;;4945029;28;20459;-81
2023/09/10 05:13:29;;;;;;;1.50;1.00;;;19.60;98.20;;;;;;4949268;29;20488;-80
2023/09/10 05:15:57;;;;;;;1.50;0.97;;;19.60;98.20;;;;;;4933445;28;20470;-79
2023/09/10 05:18:24;;;;;;;1.50;1.00;;;19.60;98.20;;;;;;4944126;29;20463;-81
2023/09/10 05:23:20;;;;;;;1.43;0.90;;;19.60;98.20;;;;;;4981977;28;20506;-81
2023/09/10 05:25:46;;;;;;;1.50;0.90;;;19.60;98.20;;;;;;4974347;28;20465;-81
2023/09/10 05:28:13;;;;;;;1.50;0.90;;;19.60;98.20;;;;;;4992001;28;20493;-82
2023/09/10 05:30:40;;;;;;;1.50;1.00;;;19.60;98.20;;;;;;4979019;28;20473;-83
2023/09/10 05:33:07;;;;;;;1.50;0.90;;;19.60;98.20;;;;;;4974906;28;20505;-77
2023/09/10 05:35:34;;;;;;;1.70;1.50;;;19.60;98.20;;;;;;4966155;28;20466;-79
2023/09/10 05:38:01;;;;;;;1.50;1.00;;;19.70;98.20;;;;;;4980630;28;20507;-78
2023/09/10 05:40:29;;;;;;;1.50;1.00;;;19.70;98.20;;;;;;4973300;28;20461;-83
2023/09/10 05:42:56;;;;;;;1.50;0.90;;;19.70;98.20;;;;;;4967734;28;20473;-82
2023/09/10 05:45:22;;;;;;;1.50;0.90;;;19.70;98.20;;;;;;4967454;28;20480;-82
2023/09/10 05:47:50;;;;;;;1.50;0.90;;;19.70;98.20;;;;;;4969218;28;21043;-80
2023/09/10 05:50:17;;;;;;;1.47;0.90;;;19.70;98.20;;;;;;4971892;28;20558;-82
2023/09/10 05:52:45;;;;;;;1.70;1.27;;;19.80;98.20;;;;;;4973964;28;20493;-79
2023/09/10 05:55:12;;;;;;;1.50;1.00;;;19.80;98.20;;;;;;4968043;28;20557;-81
2023/09/10 05:57:40;;;;;;;1.50;0.90;;;19.80;98.20;;;;;;4973560;28;20485;-83
2023/09/10 06:00:08;;;;;;;1.50;0.90;;;19.90;98.20;;;;;;4975315;28;20476;-80
2023/09/10 06:02:35;;;;;;;1.47;0.90;;;20.00;98.20;;;;;;4973233;28;20504;-83
2023/09/10 06:05:02;;;;;;;1.50;0.90;;;20.00;98.20;;;;;;4971102;28;20462;-81
2023/09/10 06:07:28;;;;;;;1.47;0.90;;;20.10;98.20;;;;;;4972692;28;20479;-79
2023/09/10 06:09:55;;;;;;;1.50;0.90;;;20.20;98.20;;;;;;4973954;28;20504;-82
2023/09/10 06:12:22;;;;;;;1.60;1.30;;;20.30;98.20;;;;;;4970908;28;20495;-80
2023/09/10 06:14:50;;;;;;;1.50;0.90;;;20.40;98.20;;;;;;4977610;28;20466;-80
2023/09/10 06:17:17;;;;;;;1.43;0.90;;;20.50;98.20;;;;;;4972891;28;20528;-82
2023/09/10 06:19:47;;;;;;;1.50;0.97;;;20.60;98.20;;;;;;4978397;28;20535;-80
2023/09/10 06:22:14;;;;;;;1.50;0.90;;;20.70;98.20;;;;;;4971846;28;20488;-80
2023/09/10 06:24:41;;;;;;;1.50;1.00;;;20.90;98.20;;;;;;4977626;28;20478;-81
2023/09/10 06:27:08;;;;;;;1.60;1.20;;;21.00;98.20;;;;;;4971577;28;20809;-80
2023/09/10 06:29:34;;;;;;;1.50;0.93;;;21.20;98.20;;;;;;4974324;28;20498;-80
2023/09/10 06:32:03;;;;;;;1.50;0.90;;;21.20;98.20;;;;;;4967416;28;20490;-80
2023/09/10 06:34:30;;;;;;;1.50;0.90;;;21.30;98.20;;;;;;4980548;28;20589;-80
2023/09/10 06:36:57;;;;;;;1.50;0.90;;;21.40;98.20;;;;;;4969829;28;20941;-81
2023/09/10 06:39:23;;;;;;;1.50;0.90;;;21.60;98.20;;;;;;4975026;28;20469;-80
2023/09/10 06:41:52;;;;;;;1.50;0.90;;;21.70;98.20;;;;;;4965893;28;20489;-78
2023/09/10 06:44:19;;;;;;;1.50;1.10;;;21.90;98.20;;;;;;4977109;28;20477;-78
2023/09/10 06:46:45;;;;;;;1.50;0.90;;;22.00;98.20;;;;;;4972508;28;21453;-79
2023/09/10 06:49:14;;;;;;;1.50;0.90;;;22.20;98.20;;;;;;4977486;28;20534;-78
2023/09/10 06:51:40;;;;;;;1.47;0.90;;;22.30;98.20;;;;;;4969923;28;20511;-79
2023/09/10 06:54:07;;;;;;;1.50;1.00;;;22.50;98.20;;;;;;4974525;28;20462;-79
2023/09/10 06:56:34;;;;;;;1.50;0.90;;;22.60;98.20;;;;;;4973157;28;20925;-78
2023/09/10 06:59:01;;;;;;;1.50;0.90;;;22.70;98.20;;;;;;4979619;28;20476;-79
2023/09/10 07:01:28;;;;;;;1.50;0.90;;;22.80;98.20;;;;;;4973474;28;20490;-80
2023/09/10 07:03:57;;;;;;;1.50;0.90;;;22.90;98.20;;;;;;4986861;28;20854;-79
2023/09/10 07:06:25;;;;;;;1.50;0.90;;;23.00;98.20;;;;;;4974049;28;20515;-80
2023/09/10 07:08:52;;;;;;;1.80;1.47;;;23.20;98.20;;;;;;4984400;28;20496;-80
2023/09/10 07:11:21;;;;;;;1.50;0.90;;;23.40;98.20;;;;;;4968497;28;20488;-81
2023/09/10 07:13:47;;;;;;;1.50;0.90;;;23.50;98.20;;;;;;4982886;28;20466;-80
2023/09/10 07:16:15;;;;;;;1.50;0.90;;;23.70;98.20;;;;;;4973026;28;20523;-81
2023/09/10 07:18:42;;;;;;;1.50;0.90;;;23.90;98.20;;;;;;4982695;28;20461;-80
2023/09/10 07:21:08;;;;;;;1.50;0.90;;;24.00;98.20;;;;;;4965239;28;20778;-81
2023/09/10 07:23:37;;;;;;;1.50;0.90;;;24.20;98.20;;;;;;4983360;28;20473;-80
2023/09/10 07:26:03;;;;;;;1.50;0.90;;;24.30;98.20;;;;;;4967391;28;20745;-80
2023/09/10 07:28:30;;;;;;;1.50;0.90;;;24.50;98.20;;;;;;4977626;28;20509;-80
2023/09/10 07:30:57;;;;;;;1.50;0.90;;;24.70;98.20;;;;;;4963662;28;20501;-81
2023/09/10 07:33:24;;;;;;;1.50;0.90;;;24.80;98.20;;;;;;4981757;28;20462;-80
2023/09/10 07:35:51;;;;;;;1.50;0.90;;;24.90;98.20;;;;;;4963262;28;21415;-80
2023/09/10 07:38:18;;;;;;;1.63;1.17;;;25.10;98.20;;;;;;4979481;28;20497;-80
2023/09/10 07:40:46;;;;;;;1.50;1.00;;;25.30;98.20;;;;;;4973277;28;20490;-79
2023/09/10 07:43:13;;;;;;;1.50;1.10;;;25.40;98.20;;;;;;4962662;28;20534;-80
2023/09/10 07:45:40;;;;;;;1.60;1.30;;;25.60;98.20;;;;;;4972033;28;20506;-80
2023/09/10 07:48:07;;;;;;;1.50;0.90;;;25.70;98.20;;;;;;4967191;28;20483;-80
2023/09/10 07:50:34;;;;;;;1.50;0.90;;;25.80;98.20;;;;;;4972950;28;20521;-80
2023/09/10 07:53:01;;;;;;;1.77;1.23;;;26.00;98.20;;;;;;4974465;28;20584;-81
2023/09/10 07:55:28;;;;;;;1.50;0.90;;;26.10;98.20;;;;;;4970684;28;20469;-80
2023/09/10 07:57:56;;;;;;;1.50;0.83;;;26.20;98.20;;;;;;4966720;28;20482;-80
2023/09/10 08:03:05;;;;;;;1.50;0.80;;;26.40;98.20;;;;;;5193067;23;20526;-81
2023/09/10 08:05:36;;;;;;;1.50;0.80;;;26.60;98.20;;;;;;4952273;28;20941;-81
2023/09/10 08:08:03;;;;;;;1.60;1.13;;;26.70;98.20;;;;;;4960733;28;20868;-82
2023/09/10 08:10:31;;;;;;;1.50;0.90;;;26.70;98.20;;;;;;4951346;28;20749;-81
2023/09/10 08:12:59;;;;;;;1.50;0.80;;;26.80;98.20;;;;;;4945631;28;20482;-82
2023/09/10 08:15:26;;;;;;;1.50;0.90;;;26.90;98.20;;;;;;4945750;29;20551;-82
2023/09/10 08:17:55;;;;;;;1.50;0.90;;;27.10;98.20;;;;;;4942811;28;20525;-80
2023/09/10 08:20:22;;;;;;;1.50;0.90;;;27.10;98.20;;;;;;4936560;29;20464;-82
2023/09/10 08:22:49;;;;;;;1.80;1.20;;;27.20;98.20;;;;;;4942454;28;20493;-81
2023/09/10 08:25:16;;;;;;;1.50;0.90;;;27.40;98.20;;;;;;4939749;29;20478;-81
2023/09/10 08:27:43;;;;;;;1.50;0.90;;;27.50;98.20;;;;;;4947457;28;20480;-81
2023/09/10 08:30:32;;;;;;;;;;;;;;;;;;;;;
2023/09/10 08:33:02;;;;;;;1.50;0.90;;;27.70;98.20;;;;;;4940906;28;20546;-83
2023/09/10 08:35:44;;;;;;;1.50;0.80;;;27.80;98.20;;;;;;4939016;29;20487;-82
2023/09/10 08:38:12;;;;;;;1.87;1.67;;;27.90;98.20;;;;;;4927140;29;20482;-81
2023/09/10 08:40:46;;;;;;;1.50;0.90;;;28.10;98.10;;;;;;4937526;29;20494;-80
2023/09/10 08:43:16;;;;;;;3.30;2.50;;;28.20;97.60;;;;;;4930301;28;20514;-83
2023/09/10 08:45:44;;;;;;;1.50;0.80;;;28.20;97.20;;;;;;4936053;29;20774;-80
2023/09/10 08:48:13;;;;;;;1.43;0.90;;;28.30;97.20;;;;;;4933651;29;20875;-82
2023/09/10 08:50:41;;;;;;;1.43;0.80;;;28.40;97.30;;;;;;4939270;29;20542;-81
2023/09/10 08:53:11;;;;;;;1.50;0.80;;;28.50;96.60;;;;;;4933757;29;20563;-84
2023/09/10 08:55:39;;;;;;;1.50;0.80;;;28.60;97.00;;;;;;4934965;29;20527;-82
2023/09/10 08:58:10;;;;;;;1.47;0.80;;;28.70;96.00;;;;;;4941270;28;20477;-82
2023/09/10 09:00:39;;;;;;;1.50;0.80;;;28.80;96.50;;;;;;4939154;29;20468;-82
2023/09/10 09:03:08;;;;;;;1.53;0.90;;;28.90;95.60;;;;;;4943693;28;20514;-82
2023/09/10 09:05:37;;;;;;;1.47;0.80;;;29.10;95.90;;;;;;4944448;28;20493;-80
2023/09/10 09:08:11;;;;;;;1.50;0.83;;;29.20;95.10;;;;;;4946083;28;20489;-83
2023/09/10 09:10:38;;;;;;;1.50;0.90;;;29.30;94.80;;;;;;4936635;29;20473;-81
2023/09/10 09:13:09;;;;;;;1.47;0.80;;;29.40;95.10;;;;;;4935191;28;20511;-81
2023/09/10 09:15:39;;;;;;;1.50;0.90;;;29.50;95.20;;;;;;4931488;29;20860;-81
2023/09/10 09:18:09;;;;;;;1.50;0.80;;;29.60;94.30;;;;;;4943097;28;20565;-81
2023/09/10 09:20:39;;;;;;;1.47;0.80;;;29.70;94.40;;;;;;4939212;29;20840;-81
2023/09/10 09:23:16;;;;;;;1.50;0.90;;;29.90;94.30;;;;;;4938003;28;20923;-82
2023/09/10 09:25:49;;;;;;;1.50;0.80;;;30.00;93.30;;;;;;4934944;29;20902;-81
2023/09/10 09:28:35;;;;;;;1.43;0.80;;;30.10;94.10;;;;;;4931627;29;20485;-81
2023/09/10 09:31:11;;;;;;;1.50;0.80;;;30.30;93.50;;;;;;4933157;28;21019;-83
2023/09/10 09:33:40;;;;;;;1.40;0.80;;;30.40;92.20;;;;;;4952512;28;20977;-82
2023/09/10 09:36:13;;;;;;;1.50;0.80;;;30.60;92.40;;;;;;4928636;28;20736;-83
2023/09/10 09:38:43;;;;;;;1.60;1.10;;;30.70;92.10;;;;;;4947881;28;20470;-83
2023/09/10 09:41:10;;;;;;;1.47;0.80;;;30.90;90.50;;;;;;4928563;28;20535;-81
2023/09/10 09:43:37;;;;;;;1.50;0.80;;;31.00;91.20;;;;;;4949835;28;20500;-81
2023/09/10 09:46:26;;;;;;;1.50;0.80;;;31.20;89.50;;;;;;4931715;28;20484;-82
2023/09/10 09:48:54;;;;;;;1.47;0.80;;;31.30;89.70;;;;;;4949542;28;20489;-82
2023/09/10 09:51:21;;;;;;;1.60;1.10;;;31.30;89.50;;;;;;4933199;28;20490;-82
2023/09/10 09:53:49;;;;;;;1.50;0.90;;;31.40;89.80;;;;;;4950326;28;20534;-85
2023/09/10 09:56:18;;;;;;;1.50;0.90;;;31.50;88.30;;;;;;4932488;28;20551;-83
2023/09/10 09:58:45;;;;;;;1.50;0.87;;;31.70;87.70;;;;;;4946942;28;20462;-83
2023/09/10 10:01:12;;;;;;;1.47;0.80;;;31.80;88.10;;;;;;4936242;28;20709;-83
2023/09/10 10:03:40;;;;;;;1.43;0.80;;;31.90;87.50;;;;;;4948244;28;20890;-82
2023/09/10 10:06:09;;;;;;;1.43;0.80;;;32.00;86.50;;;;;;4934093;28;20746;-82
2023/09/10 10:08:48;;;;;;;1.80;1.00;;;32.20;85.70;;;;;;4948404;28;20565;-86
2023/09/10 10:11:17;;;;;;;1.47;0.80;;;32.30;86.30;;;;;;4932035;28;20610;-82
2023/09/10 10:13:46;;;;;;;1.43;0.80;;;32.40;86.30;;;;;;4950651;28;20463;-82
2023/09/10 10:16:14;;;;;;;1.43;0.80;;;32.50;84.80;;;;;;4931468;28;20481;-81
2023/09/10 10:18:41;;;;;;;1.50;0.80;;;32.60;85.10;;;;;;4948141;28;20397;-81
2023/09/10 10:21:11;;;;;;;1.43;0.80;;;32.70;85.20;;;;;;4932914;28;20773;-80
2023/09/10 10:23:40;;;;;;;1.47;0.80;;;32.90;84.20;;;;;;4951698;28;20716;-80
2023/09/10 10:26:07;;;;;;;1.43;0.80;;;33.00;83.20;;;;;;4939257;28;20254;-80
2023/09/10 10:28:37;;;;;;;1.47;0.80;;;33.10;82.30;;;;;;4951927;28;20227;-79
2023/09/10 10:31:08;;;;;;;1.47;0.80;;;33.10;83.00;;;;;;4930841;28;20270;-80
2023/09/10 10:33:37;;;;;;;1.43;0.80;;;33.30;82.50;;;;;;4944555;28;20211;-79
2023/09/10 10:36:11;;;;;;;1.50;0.80;;;33.40;81.50;;;;;;4929423;28;20209;-81
2023/09/10 10:38:43;;;;;;;1.47;0.80;;;33.40;81.20;;;;;;4949428;28;20231;-79
2023/09/10 10:41:14;;;;;;;2.80;1.83;;;33.60;81.30;;;;;;4931384;28;20263;-80
2023/09/10 10:43:47;;;;;;;1.60;1.00;;;33.60;81.10;;;;;;4946001;28;20272;-80
2023/09/10 10:46:15;;;;;;;1.47;0.80;;;33.70;82.00;;;;;;4933798;28;20697;-79
2023/09/10 10:48:43;;;;;;;1.50;0.90;;;33.80;81.20;;;;;;4944444;28;20286;-79
2023/09/10 10:51:16;;;;;;;1.43;0.80;;;33.90;81.20;;;;;;4929531;28;20249;-80
2023/09/10 10:53:44;;;;;;;1.50;0.80;;;33.90;81.40;;;;;;4951590;28;20261;-80
2023/09/10 10:56:15;;;;;;;1.40;0.80;;;33.90;79.50;;;;;;4931036;28;20249;-80
2023/09/10 10:59:14;;;;;;;1.43;0.80;;;33.90;80.00;;;;;;4953304;28;20699;-80
2023/09/10 11:01:41;;;;;;;1.45;0.80;;;34.00;78.40;;;;;;4925557;28;20586;-80
2023/09/10 11:05:04;;;;;;;2.00;1.53;;;34.00;79.50;;;;;;4947491;28;20214;-81
2023/09/10 11:07:33;;;;;;;1.50;1.10;;;34.10;79.80;;;;;;4939013;28;20234;-80
2023/09/10 11:10:44;;;;;;;1.45;0.80;;;34.20;77.20;;;;;;4947868;28;20235;-79
2023/09/10 11:13:12;;;;;;;1.43;0.80;;;34.20;78.40;;;;;;4946252;28;20267;-78
2023/09/10 11:16:15;;;;;;;1.42;0.80;;;34.30;79.10;;;;;;4935839;28;20948;-79
2023/09/10 11:18:55;;;;;;;;;;;;;;;;;;;;;
2023/09/10 11:21:22;;;;;;;1.42;0.80;;;34.50;77.50;;;;;;4917773;28;20226;-79
2023/09/10 11:24:27;;;;;;;1.40;0.80;;;34.60;77.20;;;;;;4957683;28;20230;-79
2023/09/10 11:27:23;;;;;;;1.43;0.80;;;34.70;77.50;;;;;;4936199;28;20233;-78
2023/09/10 11:30:11;;;;;;;1.45;0.80;;;34.70;77.40;;;;;;4936046;28;20679;-79
2023/09/10 11:32:38;;;;;;;1.45;0.80;;;34.70;77.60;;;;;;4935336;28;20230;-78
2023/09/10 11:35:28;;;;;;;1.40;0.80;;;34.80;76.90;;;;;;4938674;28;20271;-78
2023/09/10 11:38:03;;;;;;;1.42;0.80;;;34.90;77.90;;;;;;4942636;28;20231;-79
2023/09/10 11:40:30;;;;;;;1.40;0.80;;;34.90;78.80;;;;;;4939116;29;20217;-79
2023/09/10 11:42:59;;;;;;;1.50;0.90;;;35.00;77.90;;;;;;4950682;28;20691;-78
2023/09/10 11:45:30;;;;;;;1.45;0.80;;;35.20;76.00;;;;;;4937314;28;20211;-79
2023/09/10 11:47:57;;;;;;;1.42;0.80;;;35.20;75.90;;;;;;4936279;28;20707;-79
2023/09/10 11:50:26;;;;;;;1.45;0.90;;;35.20;76.20;;;;;;4936713;29;20251;-79
2023/09/10 11:52:53;;;;;;;1.45;0.80;;;35.20;75.80;;;;;;4946943;28;20284;-79
2023/09/10 11:55:20;;;;;;;1.40;0.80;;;35.30;77.00;;;;;;4939771;28;20214;-80
2023/09/10 11:57:48;;;;;;;1.42;0.80;;;35.30;74.10;;;;;;4939964;28;20226;-81
2023/09/10 12:00:16;;;;;;;1.40;0.80;;;35.30;74.80;;;;;;4938798;28;20689;-78
2023/09/10 12:02:44;;;;;;;1.45;0.80;;;35.20;73.80;;;;;;4936192;28;20234;-79
2023/09/10 12:05:11;;;;;;;1.42;0.80;;;35.30;75.10;;;;;;4932847;29;20307;-79
2023/09/10 12:07:43;;;;;;;1.42;0.80;;;35.30;74.60;;;;;;4937047;28;20769;-78
2023/09/10 12:10:10;;;;;;;1.42;0.80;;;35.20;74.70;;;;;;4932861;28;20299;-79
2023/09/10 12:12:38;;;;;;;1.45;0.85;;;35.30;76.90;;;;;;4940115;28;20238;-78
2023/09/10 12:15:06;;;;;;;1.42;0.82;;;35.40;75.10;;;;;;4942203;28;20235;-78
2023/09/10 12:17:35;;;;;;;1.40;0.80;;;35.60;75.60;;;;;;4934810;28;20389;-78
2023/09/10 12:20:02;;;;;;;1.40;0.80;;;35.60;74.60;;;;;;4933522;28;20212;-78
2023/09/10 12:22:30;;;;;;;1.40;0.80;;;35.60;75.70;;;;;;4936041;28;20290;-78
2023/09/10 12:24:57;;;;;;;1.42;0.80;;;35.60;74.20;;;;;;4931222;28;20212;-79
2023/09/10 12:27:25;;;;;;;1.40;0.80;;;35.60;74.10;;;;;;4942377;28;20293;-78
2023/09/10 12:29:52;;;;;;;1.40;0.80;;;35.70;73.80;;;;;;4931297;28;20226;-78
2023/09/10 12:32:19;;;;;;;1.40;0.80;;;35.80;74.30;;;;;;4935571;28;20257;-78
2023/09/10 12:34:47;;;;;;;1.40;0.80;;;35.90;74.30;;;;;;4940182;28;20323;-78
2023/09/10 12:37:15;;;;;;;1.50;1.00;;;35.90;75.00;;;;;;4937639;28;20222;-78
2023/09/10 12:39:44;;;;;;;1.40;0.80;;;35.90;73.30;;;;;;4948761;28;20215;-77
2023/09/10 12:42:11;;;;;;;1.40;0.80;;;36.00;72.60;;;;;;4938995;28;20289;-78
2023/09/10 12:44:40;;;;;;;1.40;0.80;;;36.00;73.00;;;;;;4940310;28;20245;-78
2023/09/10 12:47:09;;;;;;;1.40;0.80;;;36.00;73.80;;;;;;4934073;28;20368;-79
2023/09/10 12:49:36;;;;;;;1.40;0.80;;;36.00;73.90;;;;;;4942698;28;20229;-78
2023/09/10 12:52:05;;;;;;;1.58;1.42;;;36.00;73.00;;;;;;4928276;28;20277;-80
2023/09/10 12:54:32;;;;;;;1.70;1.10;;;36.10;73.90;;;;;;4939661;29;20314;-79
2023/09/10 12:57:02;;;;;;;1.42;0.90;;;36.10;73.60;;;;;;4936343;28;20245;-78
2023/09/10 12:59:32;;;;;;;1.40;0.80;;;36.20;73.80;;;;;;4944557;28;20204;-78
2023/09/10 13:02:02;;;;;;;1.40;0.80;;;36.20;72.60;;;;;;4929823;28;20237;-78